sensor_id;sensor_type;location;lat;lon;timestamp;temperature;humidity
47773;DHT22;33534;51.028;13.716;2022-07-29T00:02:00;16.80;51.10
47773;DHT22;33534;51.028;13.716;2022-07-29T00:04:26;16.80;51.50
47773;DHT22;33534;51.028;13.716;2022-07-29T00:06:52;16.80;51.20
47773;DHT22;33534;51.028;13.716;2022-07-29T00:09:17;16.80;51.20
47773;DHT22;33534;51.028;13.716;2022-07-29T00:11:43;16.80;51.20
47773;DHT22;33534;51.028;13.716;2022-07-29T00:14:09;16.80;51.50
47773;DHT22;33534;51.028;13.716;2022-07-29T00:16:34;16.70;51.40
47773;DHT22;33534;51.028;13.716;2022-07-29T00:19:00;16.80;51.60
47773;DHT22;33534;51.028;13.716;2022-07-29T00:21:26;16.70;51.50
47773;DHT22;33534;51.028;13.716;2022-07-29T00:23:51;16.60;51.80
47773;DHT22;33534;51.028;13.716;2022-07-29T00:26:17;16.60;51.90
47773;DHT22;33534;51.028;13.716;2022-07-29T00:28:43;16.50;52.40
47773;DHT22;33534;51.028;13.716;2022-07-29T00:31:08;16.50;52.40
47773;DHT22;33534;51.028;13.716;2022-07-29T00:33:34;16.40;52.70
47773;DHT22;33534;51.028;13.716;2022-07-29T00:35:59;16.30;53.00
47773;DHT22;33534;51.028;13.716;2022-07-29T00:38:25;16.30;53.40
47773;DHT22;33534;51.028;13.716;2022-07-29T00:40:51;16.20;53.40
47773;DHT22;33534;51.028;13.716;2022-07-29T00:43:17;16.10;53.80
47773;DHT22;33534;51.028;13.716;2022-07-29T00:45:43;16.10;54.10
47773;DHT22;33534;51.028;13.716;2022-07-29T00:48:08;16.00;54.40
47773;DHT22;33534;51.028;13.716;2022-07-29T00:50:35;15.90;54.80
47773;DHT22;33534;51.028;13.716;2022-07-29T00:53:02;15.90;54.70
47773;DHT22;33534;51.028;13.716;2022-07-29T00:55:28;15.90;54.60
47773;DHT22;33534;51.028;13.716;2022-07-29T00:57:55;15.80;54.60
47773;DHT22;33534;51.028;13.716;2022-07-29T01:00:25;15.90;54.80
47773;DHT22;33534;51.028;13.716;2022-07-29T01:02:51;15.90;54.90
47773;DHT22;33534;51.028;13.716;2022-07-29T01:05:19;15.80;55.00
47773;DHT22;33534;51.028;13.716;2022-07-29T01:07:46;15.80;55.00
47773;DHT22;33534;51.028;13.716;2022-07-29T01:10:13;15.80;55.50
47773;DHT22;33534;51.028;13.716;2022-07-29T01:12:40;15.70;55.90
47773;DHT22;33534;51.028;13.716;2022-07-29T01:15:08;15.70;55.80
47773;DHT22;33534;51.028;13.716;2022-07-29T01:23:26;15.40;56.80
47773;DHT22;33534;51.028;13.716;2022-07-29T01:26:19;15.40;57.30
47773;DHT22;33534;51.028;13.716;2022-07-29T01:31:24;15.40;57.60
47773;DHT22;33534;51.028;13.716;2022-07-29T01:33:58;15.40;57.50
47773;DHT22;33534;51.028;13.716;2022-07-29T01:39:12;15.40;57.60
47773;DHT22;33534;51.028;13.716;2022-07-29T01:41:46;15.40;57.90
47773;DHT22;33534;51.028;13.716;2022-07-29T01:44:22;15.30;57.90
47773;DHT22;33534;51.028;13.716;2022-07-29T01:46:55;15.30;58.10
47773;DHT22;33534;51.028;13.716;2022-07-29T01:49:28;15.40;58.30
47773;DHT22;33534;51.028;13.716;2022-07-29T01:52:05;15.50;58.00
47773;DHT22;33534;51.028;13.716;2022-07-29T01:54:39;15.40;57.90
47773;DHT22;33534;51.028;13.716;2022-07-29T01:57:09;15.40;58.00
47773;DHT22;33534;51.028;13.716;2022-07-29T01:59:37;15.40;58.10
47773;DHT22;33534;51.028;13.716;2022-07-29T02:02:03;15.40;58.20
47773;DHT22;33534;51.028;13.716;2022-07-29T02:04:31;15.30;58.10
47773;DHT22;33534;51.028;13.716;2022-07-29T02:07:01;15.40;58.20
47773;DHT22;33534;51.028;13.716;2022-07-29T02:09:28;15.40;58.00
47773;DHT22;33534;51.028;13.716;2022-07-29T02:11:56;15.40;57.80
47773;DHT22;33534;51.028;13.716;2022-07-29T02:14:24;15.40;58.00
47773;DHT22;33534;51.028;13.716;2022-07-29T02:16:53;15.40;58.20
47773;DHT22;33534;51.028;13.716;2022-07-29T02:19:21;15.40;58.40
47773;DHT22;33534;51.028;13.716;2022-07-29T02:21:48;15.40;58.40
47773;DHT22;33534;51.028;13.716;2022-07-29T02:24:16;15.50;58.30
47773;DHT22;33534;51.028;13.716;2022-07-29T02:26:44;15.40;58.40
47773;DHT22;33534;51.028;13.716;2022-07-29T02:29:11;15.50;58.40
47773;DHT22;33534;51.028;13.716;2022-07-29T02:31:38;15.50;58.30
47773;DHT22;33534;51.028;13.716;2022-07-29T02:34:07;15.50;58.30
47773;DHT22;33534;51.028;13.716;2022-07-29T02:36:34;15.50;58.70
47773;DHT22;33534;51.028;13.716;2022-07-29T02:39:02;15.40;58.70
47773;DHT22;33534;51.028;13.716;2022-07-29T02:41:47;15.40;58.90
47773;DHT22;33534;51.028;13.716;2022-07-29T02:44:16;15.40;59.00
47773;DHT22;33534;51.028;13.716;2022-07-29T02:49:47;15.30;59.00
47773;DHT22;33534;51.028;13.716;2022-07-29T02:57:34;15.30;58.90
47773;DHT22;33534;51.028;13.716;2022-07-29T03:00:05;15.30;59.20
47773;DHT22;33534;51.028;13.716;2022-07-29T03:02:40;15.30;59.40
47773;DHT22;33534;51.028;13.716;2022-07-29T03:05:09;15.40;59.30
47773;DHT22;33534;51.028;13.716;2022-07-29T03:07:36;15.40;59.50
47773;DHT22;33534;51.028;13.716;2022-07-29T03:10:04;15.40;59.50
47773;DHT22;33534;51.028;13.716;2022-07-29T03:12:31;15.40;59.40
47773;DHT22;33534;51.028;13.716;2022-07-29T03:14:59;15.50;59.40
47773;DHT22;33534;51.028;13.716;2022-07-29T03:17:24;15.40;59.50
47773;DHT22;33534;51.028;13.716;2022-07-29T03:19:51;15.50;59.50
47773;DHT22;33534;51.028;13.716;2022-07-29T03:22:16;15.50;59.30
47773;DHT22;33534;51.028;13.716;2022-07-29T03:24:42;15.50;59.30
47773;DHT22;33534;51.028;13.716;2022-07-29T03:27:08;15.60;59.30
47773;DHT22;33534;51.028;13.716;2022-07-29T03:29:33;15.60;59.10
47773;DHT22;33534;51.028;13.716;2022-07-29T03:32:01;15.60;59.10
47773;DHT22;33534;51.028;13.716;2022-07-29T03:34:27;15.60;59.20
47773;DHT22;33534;51.028;13.716;2022-07-29T03:36:53;15.60;59.00
47773;DHT22;33534;51.028;13.716;2022-07-29T03:39:23;15.60;59.40
47773;DHT22;33534;51.028;13.716;2022-07-29T03:41:52;15.60;59.20
47773;DHT22;33534;51.028;13.716;2022-07-29T03:44:20;15.70;59.40
47773;DHT22;33534;51.028;13.716;2022-07-29T03:46:48;15.70;59.30
47773;DHT22;33534;51.028;13.716;2022-07-29T03:49:16;15.70;59.20
47773;DHT22;33534;51.028;13.716;2022-07-29T03:51:42;15.80;58.90
47773;DHT22;33534;51.028;13.716;2022-07-29T03:54:08;15.90;59.00
47773;DHT22;33534;51.028;13.716;2022-07-29T03:56:40;15.90;59.20
47773;DHT22;33534;51.028;13.716;2022-07-29T03:59:07;15.70;59.10
47773;DHT22;33534;51.028;13.716;2022-07-29T04:01:33;15.80;59.00
47773;DHT22;33534;51.028;13.716;2022-07-29T04:04:01;15.70;59.10
47773;DHT22;33534;51.028;13.716;2022-07-29T04:06:27;15.70;59.40
47773;DHT22;33534;51.028;13.716;2022-07-29T04:08:52;15.70;59.40
47773;DHT22;33534;51.028;13.716;2022-07-29T04:11:18;15.90;58.90
47773;DHT22;33534;51.028;13.716;2022-07-29T04:13:44;15.90;58.50
47773;DHT22;33534;51.028;13.716;2022-07-29T04:16:09;15.90;58.70
47773;DHT22;33534;51.028;13.716;2022-07-29T04:18:35;16.00;58.50
47773;DHT22;33534;51.028;13.716;2022-07-29T04:21:01;16.10;58.20
47773;DHT22;33534;51.028;13.716;2022-07-29T04:23:29;16.20;57.70
47773;DHT22;33534;51.028;13.716;2022-07-29T04:25:57;16.40;57.30
47773;DHT22;33534;51.028;13.716;2022-07-29T04:28:23;16.50;56.80
47773;DHT22;33534;51.028;13.716;2022-07-29T04:30:48;16.50;57.20
47773;DHT22;33534;51.028;13.716;2022-07-29T04:33:14;16.60;57.50
47773;DHT22;33534;51.028;13.716;2022-07-29T04:35:40;16.70;57.40
47773;DHT22;33534;51.028;13.716;2022-07-29T04:38:06;16.90;56.90
47773;DHT22;33534;51.028;13.716;2022-07-29T04:40:33;17.20;55.90
47773;DHT22;33534;51.028;13.716;2022-07-29T04:43:00;17.50;54.70
47773;DHT22;33534;51.028;13.716;2022-07-29T04:45:26;17.80;53.90
47773;DHT22;33534;51.028;13.716;2022-07-29T04:47:52;17.80;54.20
47773;DHT22;33534;51.028;13.716;2022-07-29T04:50:18;18.00;53.40
47773;DHT22;33534;51.028;13.716;2022-07-29T04:52:43;18.20;52.90
47773;DHT22;33534;51.028;13.716;2022-07-29T04:55:09;18.40;52.40
47773;DHT22;33534;51.028;13.716;2022-07-29T04:57:35;18.50;52.20
47773;DHT22;33534;51.028;13.716;2022-07-29T05:00:00;18.60;52.00
47773;DHT22;33534;51.028;13.716;2022-07-29T05:02:26;18.90;51.20
47773;DHT22;33534;51.028;13.716;2022-07-29T05:09:44;20.10;48.80
47773;DHT22;33534;51.028;13.716;2022-07-29T05:12:09;21.00;47.00
47773;DHT22;33534;51.028;13.716;2022-07-29T05:14:35;21.50;45.10
47773;DHT22;33534;51.028;13.716;2022-07-29T05:17:00;22.00;43.80
47773;DHT22;33534;51.028;13.716;2022-07-29T05:19:26;21.70;43.90
47773;DHT22;33534;51.028;13.716;2022-07-29T05:21:52;21.90;43.40
47773;DHT22;33534;51.028;13.716;2022-07-29T05:24:17;22.50;42.50
47773;DHT22;33534;51.028;13.716;2022-07-29T05:36:28;25.00;37.90
47773;DHT22;33534;51.028;13.716;2022-07-29T05:38:53;25.10;37.30
47773;DHT22;33534;51.028;13.716;2022-07-29T05:41:19;25.00;37.50
47773;DHT22;33534;51.028;13.716;2022-07-29T05:51:04;23.20;40.70
47773;DHT22;33534;51.028;13.716;2022-07-29T06:34:58;20.80;45.70
47773;DHT22;33534;51.028;13.716;2022-07-29T06:42:36;21.70;44.30
47773;DHT22;33534;51.028;13.716;2022-07-29T06:45:01;21.80;44.20
47773;DHT22;33534;51.028;13.716;2022-07-29T06:47:27;22.00;44.40
47773;DHT22;33534;51.028;13.716;2022-07-29T06:49:52;22.00;44.30
47773;DHT22;33534;51.028;13.716;2022-07-29T06:52:18;22.40;43.60
47773;DHT22;33534;51.028;13.716;2022-07-29T06:54:43;22.80;42.60
47773;DHT22;33534;51.028;13.716;2022-07-29T06:57:13;22.80;42.50
47773;DHT22;33534;51.028;13.716;2022-07-29T06:59:39;23.00;42.50
47773;DHT22;33534;51.028;13.716;2022-07-29T07:02:04;23.40;42.00
47773;DHT22;33534;51.028;13.716;2022-07-29T07:04:30;23.40;41.50
47773;DHT22;33534;51.028;13.716;2022-07-29T07:06:55;22.80;42.70
47773;DHT22;33534;51.028;13.716;2022-07-29T07:09:21;22.40;43.40
47773;DHT22;33534;51.028;13.716;2022-07-29T07:11:47;22.40;43.60
47773;DHT22;33534;51.028;13.716;2022-07-29T07:14:12;23.20;42.20
47773;DHT22;33534;51.028;13.716;2022-07-29T07:16:38;24.10;40.10
47773;DHT22;33534;51.028;13.716;2022-07-29T07:19:03;24.60;38.90
47773;DHT22;33534;51.028;13.716;2022-07-29T07:21:29;25.10;38.30
47773;DHT22;33534;51.028;13.716;2022-07-29T07:23:55;25.80;37.20
47773;DHT22;33534;51.028;13.716;2022-07-29T07:26:21;25.80;37.10
47773;DHT22;33534;51.028;13.716;2022-07-29T07:28:46;25.50;37.30
47773;DHT22;33534;51.028;13.716;2022-07-29T07:31:12;25.40;37.90
47773;DHT22;33534;51.028;13.716;2022-07-29T07:33:38;24.60;38.50
47773;DHT22;33534;51.028;13.716;2022-07-29T07:36:03;24.90;38.70
47773;DHT22;33534;51.028;13.716;2022-07-29T07:38:29;25.20;38.30
47773;DHT22;33534;51.028;13.716;2022-07-29T07:40:55;25.20;38.40
47773;DHT22;33534;51.028;13.716;2022-07-29T07:43:20;25.40;38.00
47773;DHT22;33534;51.028;13.716;2022-07-29T07:45:47;26.00;37.40
47773;DHT22;33534;51.028;13.716;2022-07-29T07:48:12;26.90;35.30
47773;DHT22;33534;51.028;13.716;2022-07-29T07:50:38;27.70;34.00
47773;DHT22;33534;51.028;13.716;2022-07-29T07:53:03;28.50;32.50
47773;DHT22;33534;51.028;13.716;2022-07-29T07:55:29;28.60;32.20
47773;DHT22;33534;51.028;13.716;2022-07-29T07:57:55;28.20;32.80
47773;DHT22;33534;51.028;13.716;2022-07-29T08:00:22;28.00;32.90
47773;DHT22;33534;51.028;13.716;2022-07-29T08:02:48;27.80;34.00
47773;DHT22;33534;51.028;13.716;2022-07-29T08:05:14;28.20;33.20
47773;DHT22;33534;51.028;13.716;2022-07-29T08:07:44;28.00;32.60
47773;DHT22;33534;51.028;13.716;2022-07-29T08:10:10;27.90;33.30
47773;DHT22;33534;51.028;13.716;2022-07-29T08:12:35;28.20;33.30
47773;DHT22;33534;51.028;13.716;2022-07-29T08:15:01;28.20;33.00
47773;DHT22;33534;51.028;13.716;2022-07-29T08:17:27;28.10;33.10
47773;DHT22;33534;51.028;13.716;2022-07-29T08:19:53;28.70;32.10
47773;DHT22;33534;51.028;13.716;2022-07-29T08:22:18;28.10;33.20
47773;DHT22;33534;51.028;13.716;2022-07-29T08:24:44;27.80;33.70
47773;DHT22;33534;51.028;13.716;2022-07-29T08:27:18;27.40;33.80
47773;DHT22;33534;51.028;13.716;2022-07-29T08:29:43;27.20;35.00
47773;DHT22;33534;51.028;13.716;2022-07-29T08:32:09;27.00;34.90
47773;DHT22;33534;51.028;13.716;2022-07-29T08:34:34;26.80;35.60
47773;DHT22;33534;51.028;13.716;2022-07-29T08:37:00;27.10;34.80
47773;DHT22;33534;51.028;13.716;2022-07-29T08:39:26;27.60;34.20
47773;DHT22;33534;51.028;13.716;2022-07-29T08:44:18;29.00;32.50
47773;DHT22;33534;51.028;13.716;2022-07-29T08:58:58;31.30;28.90
47773;DHT22;33534;51.028;13.716;2022-07-29T09:01:27;30.20;29.90
47773;DHT22;33534;51.028;13.716;2022-07-29T09:03:56;29.70;31.20
47773;DHT22;33534;51.028;13.716;2022-07-29T09:06:22;29.20;31.70
47773;DHT22;33534;51.028;13.716;2022-07-29T09:08:53;29.20;31.50
47773;DHT22;33534;51.028;13.716;2022-07-29T09:11:19;29.30;31.80
47773;DHT22;33534;51.028;13.716;2022-07-29T09:13:44;29.50;31.40
47773;DHT22;33534;51.028;13.716;2022-07-29T09:36:28;29.50;31.50
47773;DHT22;33534;51.028;13.716;2022-07-29T09:39:00;29.10;32.80
47773;DHT22;33534;51.028;13.716;2022-07-29T09:41:27;30.00;32.00
47773;DHT22;33534;51.028;13.716;2022-07-29T09:43:57;30.40;31.30
47773;DHT22;33534;51.028;13.716;2022-07-29T09:49:16;31.60;29.70
47773;DHT22;33534;51.028;13.716;2022-07-29T09:51:42;31.70;28.90
47773;DHT22;33534;51.028;13.716;2022-07-29T09:54:24;31.60;28.80
47773;DHT22;33534;51.028;13.716;2022-07-29T09:56:51;30.70;29.90
47773;DHT22;33534;51.028;13.716;2022-07-29T09:59:17;30.30;30.70
47773;DHT22;33534;51.028;13.716;2022-07-29T10:04:09;29.00;32.20
47773;DHT22;33534;51.028;13.716;2022-07-29T10:06:34;28.80;33.00
47773;DHT22;33534;51.028;13.716;2022-07-29T10:09:10;28.90;33.00
47773;DHT22;33534;51.028;13.716;2022-07-29T10:11:36;29.30;32.70
47773;DHT22;33534;51.028;13.716;2022-07-29T10:14:03;29.60;31.70
47773;DHT22;33534;51.028;13.716;2022-07-29T10:16:29;30.00;31.60
47773;DHT22;33534;51.028;13.716;2022-07-29T10:18:58;30.70;30.20
47773;DHT22;33534;51.028;13.716;2022-07-29T10:21:27;31.50;28.80
47773;DHT22;33534;51.028;13.716;2022-07-29T10:23:53;31.30;28.80
47773;DHT22;33534;51.028;13.716;2022-07-29T10:26:20;30.70;29.60
47773;DHT22;33534;51.028;13.716;2022-07-29T10:28:46;30.40;30.10
47773;DHT22;33534;51.028;13.716;2022-07-29T10:31:33;30.60;30.20
47773;DHT22;33534;51.028;13.716;2022-07-29T10:34:18;30.70;29.40
47773;DHT22;33534;51.028;13.716;2022-07-29T10:37:08;30.80;29.80
47773;DHT22;33534;51.028;13.716;2022-07-29T10:44:42;29.60;31.10
47773;DHT22;33534;51.028;13.716;2022-07-29T10:47:26;29.50;30.90
47773;DHT22;33534;51.028;13.716;2022-07-29T10:50:03;29.80;30.60
47773;DHT22;33534;51.028;13.716;2022-07-29T10:52:58;30.00;30.30
47773;DHT22;33534;51.028;13.716;2022-07-29T10:55:38;30.50;30.60
47773;DHT22;33534;51.028;13.716;2022-07-29T11:00:41;30.50;30.10
47773;DHT22;33534;51.028;13.716;2022-07-29T11:03:07;30.70;29.80
47773;DHT22;33534;51.028;13.716;2022-07-29T11:05:56;30.70;29.40
47773;DHT22;33534;51.028;13.716;2022-07-29T11:08:22;30.30;30.10
47773;DHT22;33534;51.028;13.716;2022-07-29T11:10:50;30.30;30.40
47773;DHT22;33534;51.028;13.716;2022-07-29T11:13:45;29.90;30.40
47773;DHT22;33534;51.028;13.716;2022-07-29T11:16:16;28.90;31.50
47773;DHT22;33534;51.028;13.716;2022-07-29T11:21:36;28.70;32.20
47773;DHT22;33534;51.028;13.716;2022-07-29T11:24:12;28.90;32.30
47773;DHT22;33534;51.028;13.716;2022-07-29T11:26:38;29.00;31.80
47773;DHT22;33534;51.028;13.716;2022-07-29T11:29:18;29.00;31.90
47773;DHT22;33534;51.028;13.716;2022-07-29T11:31:47;28.90;32.20
47773;DHT22;33534;51.028;13.716;2022-07-29T11:39:41;28.80;32.40
47773;DHT22;33534;51.028;13.716;2022-07-29T11:47:23;28.90;32.20
47773;DHT22;33534;51.028;13.716;2022-07-29T11:49:50;28.80;32.10
47773;DHT22;33534;51.028;13.716;2022-07-29T11:52:19;28.40;32.50
47773;DHT22;33534;51.028;13.716;2022-07-29T11:54:48;28.30;32.80
47773;DHT22;33534;51.028;13.716;2022-07-29T11:57:16;28.40;33.00
47773;DHT22;33534;51.028;13.716;2022-07-29T11:59:45;28.60;33.10
47773;DHT22;33534;51.028;13.716;2022-07-29T12:02:11;28.60;32.90
47773;DHT22;33534;51.028;13.716;2022-07-29T12:04:51;28.60;33.00
47773;DHT22;33534;51.028;13.716;2022-07-29T12:07:17;28.90;32.80
47773;DHT22;33534;51.028;13.716;2022-07-29T12:09:53;28.90;32.10
47773;DHT22;33534;51.028;13.716;2022-07-29T12:12:19;28.90;32.10
47773;DHT22;33534;51.028;13.716;2022-07-29T12:14:45;29.10;32.30
47773;DHT22;33534;51.028;13.716;2022-07-29T12:17:31;29.20;32.70
47773;DHT22;33534;51.028;13.716;2022-07-29T12:19:59;29.50;32.00
47773;DHT22;33534;51.028;13.716;2022-07-29T12:22:33;29.60;31.80
47773;DHT22;33534;51.028;13.716;2022-07-29T16:49:44;28.00;35.10
47773;DHT22;33534;51.028;13.716;2022-07-29T16:52:09;28.00;35.10
47773;DHT22;33534;51.028;13.716;2022-07-29T16:54:36;27.70;35.60
47773;DHT22;33534;51.028;13.716;2022-07-29T18:00:44;27.00;36.60
47773;DHT22;33534;51.028;13.716;2022-07-29T18:03:10;26.90;37.00
47773;DHT22;33534;51.028;13.716;2022-07-29T18:05:35;26.80;37.00
47773;DHT22;33534;51.028;13.716;2022-07-29T18:08:01;26.70;37.00
47773;DHT22;33534;51.028;13.716;2022-07-29T18:10:26;26.60;37.40
47773;DHT22;33534;51.028;13.716;2022-07-29T18:12:52;26.60;37.50
47773;DHT22;33534;51.028;13.716;2022-07-29T18:15:18;26.50;37.60
47773;DHT22;33534;51.028;13.716;2022-07-29T18:17:44;26.50;37.70
47773;DHT22;33534;51.028;13.716;2022-07-29T18:20:10;26.40;37.70
47773;DHT22;33534;51.028;13.716;2022-07-29T18:22:35;26.40;38.10
47773;DHT22;33534;51.028;13.716;2022-07-29T18:25:01;26.20;38.30
47773;DHT22;33534;51.028;13.716;2022-07-29T18:27:26;26.20;38.40
47773;DHT22;33534;51.028;13.716;2022-07-29T18:29:52;26.10;38.50
47773;DHT22;33534;51.028;13.716;2022-07-29T18:32:18;26.10;38.70
47773;DHT22;33534;51.028;13.716;2022-07-29T18:34:44;26.00;38.80
47773;DHT22;33534;51.028;13.716;2022-07-29T18:37:10;26.00;39.50
47773;DHT22;33534;51.028;13.716;2022-07-29T18:39:35;25.80;39.80
47773;DHT22;33534;51.028;13.716;2022-07-29T18:42:01;25.70;39.90
47773;DHT22;33534;51.028;13.716;2022-07-29T18:44:27;25.60;40.30
47773;DHT22;33534;51.028;13.716;2022-07-29T18:46:52;25.50;40.70
47773;DHT22;33534;51.028;13.716;2022-07-29T18:49:20;25.30;41.00
47773;DHT22;33534;51.028;13.716;2022-07-29T18:51:46;25.30;40.80
47773;DHT22;33534;51.028;13.716;2022-07-29T18:54:11;25.20;40.90
47773;DHT22;33534;51.028;13.716;2022-07-29T18:56:37;25.30;40.90
47773;DHT22;33534;51.028;13.716;2022-07-29T18:59:03;25.20;41.00
47773;DHT22;33534;51.028;13.716;2022-07-29T19:01:29;25.10;41.80
47773;DHT22;33534;51.028;13.716;2022-07-29T19:03:54;24.90;42.10
47773;DHT22;33534;51.028;13.716;2022-07-29T19:08:46;24.60;43.30
47773;DHT22;33534;51.028;13.716;2022-07-29T19:11:11;24.50;43.80
47773;DHT22;33534;51.028;13.716;2022-07-29T19:13:37;24.40;44.10
47773;DHT22;33534;51.028;13.716;2022-07-29T19:16:04;24.30;44.70
47773;DHT22;33534;51.028;13.716;2022-07-29T19:18:30;24.20;44.90
47773;DHT22;33534;51.028;13.716;2022-07-29T19:20:55;24.10;45.10
47773;DHT22;33534;51.028;13.716;2022-07-29T19:23:21;24.00;45.70
47773;DHT22;33534;51.028;13.716;2022-07-29T19:25:47;24.10;46.40
47773;DHT22;33534;51.028;13.716;2022-07-29T19:28:12;24.00;46.60
47773;DHT22;33534;51.028;13.716;2022-07-29T19:30:38;24.00;46.70
47773;DHT22;33534;51.028;13.716;2022-07-29T19:33:04;24.00;46.60
47773;DHT22;33534;51.028;13.716;2022-07-29T19:35:30;24.00;46.80
47773;DHT22;33534;51.028;13.716;2022-07-29T19:37:58;24.00;46.60
47773;DHT22;33534;51.028;13.716;2022-07-29T19:40:25;24.00;46.70
47773;DHT22;33534;51.028;13.716;2022-07-29T19:42:51;24.00;46.60
47773;DHT22;33534;51.028;13.716;2022-07-29T19:45:21;24.00;47.10
47773;DHT22;33534;51.028;13.716;2022-07-29T19:47:48;24.00;47.10
47773;DHT22;33534;51.028;13.716;2022-07-29T19:50:14;24.00;47.90
47773;DHT22;33534;51.028;13.716;2022-07-29T19:52:41;24.00;47.80
47773;DHT22;33534;51.028;13.716;2022-07-29T19:55:07;24.00;48.10
47773;DHT22;33534;51.028;13.716;2022-07-29T19:57:33;24.00;47.90
47773;DHT22;33534;51.028;13.716;2022-07-29T19:59:59;24.00;48.10
47773;DHT22;33534;51.028;13.716;2022-07-29T20:02:25;24.00;48.10
47773;DHT22;33534;51.028;13.716;2022-07-29T20:04:50;23.90;48.20
47773;DHT22;33534;51.028;13.716;2022-07-29T20:07:16;23.90;48.60
47773;DHT22;33534;51.028;13.716;2022-07-29T20:09:42;23.90;49.00
47773;DHT22;33534;51.028;13.716;2022-07-29T20:12:09;23.90;49.30
47773;DHT22;33534;51.028;13.716;2022-07-29T20:14:34;23.90;49.10
47773;DHT22;33534;51.028;13.716;2022-07-29T20:17:00;23.90;49.10
47773;DHT22;33534;51.028;13.716;2022-07-29T20:19:26;23.90;49.60
47773;DHT22;33534;51.028;13.716;2022-07-29T20:21:52;23.80;49.40
47773;DHT22;33534;51.028;13.716;2022-07-29T20:24:19;23.80;49.20
47773;DHT22;33534;51.028;13.716;2022-07-29T20:26:46;23.80;49.70
47773;DHT22;33534;51.028;13.716;2022-07-29T20:29:11;23.70;49.50
47773;DHT22;33534;51.028;13.716;2022-07-29T20:31:37;23.70;49.00
47773;DHT22;33534;51.028;13.716;2022-07-29T20:34:03;23.70;48.50
47773;DHT22;33534;51.028;13.716;2022-07-29T20:36:29;23.60;48.60
47773;DHT22;33534;51.028;13.716;2022-07-29T20:38:55;23.70;48.30
47773;DHT22;33534;51.028;13.716;2022-07-29T20:41:20;23.70;47.90
47773;DHT22;33534;51.028;13.716;2022-07-29T20:43:46;23.70;47.80
47773;DHT22;33534;51.028;13.716;2022-07-29T20:46:14;23.70;48.10
47773;DHT22;33534;51.028;13.716;2022-07-29T20:48:40;23.50;48.20
47773;DHT22;33534;51.028;13.716;2022-07-29T20:51:06;23.40;48.70
47773;DHT22;33534;51.028;13.716;2022-07-29T20:53:39;23.30;49.20
47773;DHT22;33534;51.028;13.716;2022-07-29T20:56:06;23.20;49.70
47773;DHT22;33534;51.028;13.716;2022-07-29T21:01:32;22.90;50.20
47773;DHT22;33534;51.028;13.716;2022-07-29T21:03:57;22.90;50.70
47773;DHT22;33534;51.028;13.716;2022-07-29T21:06:23;22.80;51.00
47773;DHT22;33534;51.028;13.716;2022-07-29T21:08:49;22.70;51.50
47773;DHT22;33534;51.028;13.716;2022-07-29T21:11:14;22.60;51.60
47773;DHT22;33534;51.028;13.716;2022-07-29T21:13:40;22.50;51.60
47773;DHT22;33534;51.028;13.716;2022-07-29T21:16:08;22.50;51.80
47773;DHT22;33534;51.028;13.716;2022-07-29T21:18:40;22.50;52.20
47773;DHT22;33534;51.028;13.716;2022-07-29T21:21:10;22.50;52.10
47773;DHT22;33534;51.028;13.716;2022-07-29T21:23:37;22.40;52.00
47773;DHT22;33534;51.028;13.716;2022-07-29T21:26:03;22.40;51.90
47773;DHT22;33534;51.028;13.716;2022-07-29T21:28:28;22.40;51.80
47773;DHT22;33534;51.028;13.716;2022-07-29T21:31:02;22.50;51.90
47773;DHT22;33534;51.028;13.716;2022-07-29T21:33:29;22.50;51.90
47773;DHT22;33534;51.028;13.716;2022-07-29T21:35:55;22.50;52.10
47773;DHT22;33534;51.028;13.716;2022-07-29T21:38:21;22.50;52.10
47773;DHT22;33534;51.028;13.716;2022-07-29T21:40:49;22.40;52.40
47773;DHT22;33534;51.028;13.716;2022-07-29T21:43:15;22.40;52.40
47773;DHT22;33534;51.028;13.716;2022-07-29T21:45:42;22.50;52.20
47773;DHT22;33534;51.028;13.716;2022-07-29T21:48:08;22.50;52.30
47773;DHT22;33534;51.028;13.716;2022-07-29T21:50:34;22.50;52.40
47773;DHT22;33534;51.028;13.716;2022-07-29T21:53:00;22.40;52.50
47773;DHT22;33534;51.028;13.716;2022-07-29T21:55:26;22.50;52.50
47773;DHT22;33534;51.028;13.716;2022-07-29T21:57:55;22.40;52.60
47773;DHT22;33534;51.028;13.716;2022-07-29T22:00:21;22.40;52.60
47773;DHT22;33534;51.028;13.716;2022-07-29T22:02:50;22.40;52.90
47773;DHT22;33534;51.028;13.716;2022-07-29T22:05:16;22.40;52.80
47773;DHT22;33534;51.028;13.716;2022-07-29T22:07:42;22.40;52.90
47773;DHT22;33534;51.028;13.716;2022-07-29T22:10:08;22.40;53.00
47773;DHT22;33534;51.028;13.716;2022-07-29T22:12:33;22.30;53.20
47773;DHT22;33534;51.028;13.716;2022-07-29T22:14:59;22.40;53.40
47773;DHT22;33534;51.028;13.716;2022-07-29T22:17:25;22.30;53.30
47773;DHT22;33534;51.028;13.716;2022-07-29T22:19:51;22.40;53.50
47773;DHT22;33534;51.028;13.716;2022-07-29T22:22:18;22.40;53.60
47773;DHT22;33534;51.028;13.716;2022-07-29T22:24:44;22.30;53.90
47773;DHT22;33534;51.028;13.716;2022-07-29T22:27:10;22.30;53.80
47773;DHT22;33534;51.028;13.716;2022-07-29T22:29:35;22.30;54.40
47773;DHT22;33534;51.028;13.716;2022-07-29T22:32:01;22.30;54.10
47773;DHT22;33534;51.028;13.716;2022-07-29T22:34:27;22.30;54.10
47773;DHT22;33534;51.028;13.716;2022-07-29T22:36:52;22.30;54.60
47773;DHT22;33534;51.028;13.716;2022-07-29T22:39:18;22.30;54.20
47773;DHT22;33534;51.028;13.716;2022-07-29T22:41:44;22.30;54.20
47773;DHT22;33534;51.028;13.716;2022-07-29T22:44:09;22.30;54.10
47773;DHT22;33534;51.028;13.716;2022-07-29T22:46:35;22.30;54.40
47773;DHT22;33534;51.028;13.716;2022-07-29T22:49:01;22.30;54.60
47773;DHT22;33534;51.028;13.716;2022-07-29T22:51:26;22.30;54.70
47773;DHT22;33534;51.028;13.716;2022-07-29T22:53:52;22.30;54.70
47773;DHT22;33534;51.028;13.716;2022-07-29T22:56:19;22.30;54.80
47773;DHT22;33534;51.028;13.716;2022-07-29T22:58:44;22.30;55.00
47773;DHT22;33534;51.028;13.716;2022-07-29T23:01:10;22.20;55.40
47773;DHT22;33534;51.028;13.716;2022-07-29T23:03:36;22.10;55.50
47773;DHT22;33534;51.028;13.716;2022-07-29T23:06:02;22.10;55.70
47773;DHT22;33534;51.028;13.716;2022-07-29T23:08:28;22.10;55.70
47773;DHT22;33534;51.028;13.716;2022-07-29T23:10:54;22.00;55.90
47773;DHT22;33534;51.028;13.716;2022-07-29T23:13:19;22.00;56.10
47773;DHT22;33534;51.028;13.716;2022-07-29T23:15:45;22.00;56.20
47773;DHT22;33534;51.028;13.716;2022-07-29T23:18:11;22.00;56.10
47773;DHT22;33534;51.028;13.716;2022-07-29T23:20:36;22.00;56.00